Time;durP1;ratioP1;P1;durP2;ratioP2;P2;SDS_P1;SDS_P2;PMS_P1;PMS_P2;Temp;Humidity;BMP_temperature;BMP_pressure;BME280_temperature;BME280_humidity;BME280_pressure;Samples;Min_cycle;Max_cycle;Signal;HPM_P1;HPM_P2
2022/03/11 00:01:53;;;;;;;7.57;4.03;;;;;;;;;;5040427;28;20029;-75
2022/03/11 00:04:19;;;;;;;5.78;3.53;;;;;;;;;;5045983;28;20029;-74
2022/03/11 00:06:45;;;;;;;5.22;3.65;;;;;;;;;;5045065;28;20072;-77
2022/03/11 00:09:12;;;;;;;10.15;4.10;;;;;;;;;;5038818;28;20036;-78
2022/03/11 00:11:38;;;;;;;7.30;3.80;;;;;;;;;;5038848;28;20088;-78
2022/03/11 00:14:04;;;;;;;5.35;3.63;;;;;;;;;;5045415;28;20021;-78
2022/03/11 00:16:31;;;;;;;9.23;4.13;;;;;;;;;;5035863;28;20066;-78
2022/03/11 00:18:57;;;;;;;9.55;4.15;;;;;;;;;;5045394;28;20031;-78
2022/03/11 00:21:23;;;;;;;7.72;4.43;;;;;;;;;;5046573;28;20029;-77
2022/03/11 00:23:49;;;;;;;5.03;3.80;;;;;;;;;;5046738;28;20061;-77
2022/03/11 00:26:15;;;;;;;6.05;3.63;;;;;;;;;;5040289;28;20485;-78
2022/03/11 00:28:41;;;;;;;5.93;4.00;;;;;;;;;;5026611;28;20041;-77
2022/03/11 00:31:08;;;;;;;6.13;3.65;;;;;;;;;;5032951;28;20025;-78
2022/03/11 00:33:34;;;;;;;5.43;3.90;;;;;;;;;;5029070;28;20025;-77
2022/03/11 00:36:00;;;;;;;5.90;3.85;;;;;;;;;;5046752;28;20025;-77
2022/03/11 00:38:26;;;;;;;5.00;4.00;;;;;;;;;;5044574;28;20100;-78
2022/03/11 00:40:56;;;;;;;5.15;3.47;;;;;;;;;;5036222;28;20074;-76
2022/03/11 00:43:25;;;;;;;5.68;3.67;;;;;;;;;;5044607;28;20021;-76
2022/03/11 00:45:51;;;;;;;5.32;3.90;;;;;;;;;;5040055;28;20120;-78
2022/03/11 00:48:17;;;;;;;5.47;3.65;;;;;;;;;;5038213;28;20509;-78
2022/03/11 00:50:44;;;;;;;8.35;4.53;;;;;;;;;;5038605;28;20025;-78
2022/03/11 00:53:10;;;;;;;6.15;3.95;;;;;;;;;;5034571;28;20026;-78
2022/03/11 00:55:36;;;;;;;5.82;4.10;;;;;;;;;;5037249;28;20500;-77
2022/03/11 00:58:02;;;;;;;6.30;3.53;;;;;;;;;;5041454;28;20025;-79
2022/03/11 01:00:29;;;;;;;5.40;3.85;;;;;;;;;;5040483;28;20021;-78
2022/03/11 01:02:55;;;;;;;5.72;4.10;;;;;;;;;;5041328;28;20018;-78
2022/03/11 01:05:24;;;;;;;6.80;3.78;;;;;;;;;;5039276;28;20020;-76
2022/03/11 01:07:51;;;;;;;8.57;4.13;;;;;;;;;;5049146;28;20072;-77
2022/03/11 01:10:17;;;;;;;5.40;4.00;;;;;;;;;;5044178;28;20048;-77
2022/03/11 01:12:43;;;;;;;8.43;4.63;;;;;;;;;;5037271;28;20026;-76
2022/03/11 01:15:10;;;;;;;6.57;4.30;;;;;;;;;;5041221;28;20425;-78
2022/03/11 01:17:36;;;;;;;6.95;3.67;;;;;;;;;;5042911;28;20029;-76
2022/03/11 01:20:04;;;;;;;5.65;4.15;;;;;;;;;;5040188;28;20024;-76
2022/03/11 01:22:31;;;;;;;6.85;4.10;;;;;;;;;;5043771;28;20029;-77
2022/03/11 01:24:57;;;;;;;8.15;3.90;;;;;;;;;;5040491;28;20017;-77
2022/03/11 01:27:23;;;;;;;6.10;4.13;;;;;;;;;;5038431;28;20030;-76
2022/03/11 01:29:49;;;;;;;10.35;4.65;;;;;;;;;;5041462;28;20022;-76
2022/03/11 01:32:15;;;;;;;8.18;4.30;;;;;;;;;;5035086;28;20025;-76
2022/03/11 01:34:41;;;;;;;6.50;4.20;;;;;;;;;;5036718;28;20095;-76
2022/03/11 01:37:08;;;;;;;6.57;4.03;;;;;;;;;;5037996;28;20108;-76
2022/03/11 01:39:34;;;;;;;7.88;4.43;;;;;;;;;;5039171;28;20104;-76
2022/03/11 01:42:00;;;;;;;6.63;4.00;;;;;;;;;;5038695;28;20061;-76
2022/03/11 01:44:27;;;;;;;11.48;4.13;;;;;;;;;;5041727;28;20074;-77
2022/03/11 01:46:53;;;;;;;9.60;4.43;;;;;;;;;;5036573;28;20052;-75
2022/03/11 01:49:20;;;;;;;6.07;3.60;;;;;;;;;;5041000;28;20045;-76
2022/03/11 01:51:47;;;;;;;6.43;4.25;;;;;;;;;;5042249;28;20496;-74
2022/03/11 01:54:13;;;;;;;6.28;4.35;;;;;;;;;;5040828;28;20032;-78
2022/03/11 01:56:40;;;;;;;7.38;3.72;;;;;;;;;;5048058;28;20032;-78
2022/03/11 01:59:07;;;;;;;5.63;3.90;;;;;;;;;;5039675;28;20054;-74
2022/03/11 02:01:33;;;;;;;6.95;4.35;;;;;;;;;;5035832;28;20021;-76
2022/03/11 02:03:59;;;;;;;6.30;3.85;;;;;;;;;;5041084;28;20025;-77
2022/03/11 02:06:29;;;;;;;7.05;4.30;;;;;;;;;;5038072;28;20036;-76
2022/03/11 02:08:56;;;;;;;5.70;4.03;;;;;;;;;;5041810;28;20045;-77
2022/03/11 02:11:23;;;;;;;7.15;4.05;;;;;;;;;;5047651;28;20063;-78
2022/03/11 02:13:53;;;;;;;8.40;4.00;;;;;;;;;;5040555;28;20595;-78
2022/03/11 02:16:20;;;;;;;5.97;4.10;;;;;;;;;;5036871;28;20033;-74
2022/03/11 02:18:47;;;;;;;6.82;4.10;;;;;;;;;;5048259;28;20104;-77
2022/03/11 02:21:14;;;;;;;4.85;3.88;;;;;;;;;;5034919;28;20412;-77
2022/03/11 02:23:46;;;;;;;5.63;4.13;;;;;;;;;;5038150;28;20021;-78
2022/03/11 02:26:14;;;;;;;6.72;3.80;;;;;;;;;;5039632;28;20083;-75
2022/03/11 02:28:40;;;;;;;6.28;4.60;;;;;;;;;;5045108;28;20052;-76
2022/03/11 02:31:06;;;;;;;7.72;3.95;;;;;;;;;;5039621;28;20071;-78
2022/03/11 02:33:32;;;;;;;6.13;3.80;;;;;;;;;;5040736;28;20056;-76
2022/03/11 02:35:59;;;;;;;7.45;4.05;;;;;;;;;;5040794;28;20025;-77
2022/03/11 02:38:25;;;;;;;8.52;4.40;;;;;;;;;;5045215;28;20034;-78
2022/03/11 02:40:51;;;;;;;7.20;4.25;;;;;;;;;;5041434;28;20039;-76
2022/03/11 02:43:17;;;;;;;5.47;4.07;;;;;;;;;;5038681;28;20358;-77
2022/03/11 02:45:44;;;;;;;5.43;4.00;;;;;;;;;;5037945;28;20131;-74
2022/03/11 02:48:10;;;;;;;7.55;4.28;;;;;;;;;;5040836;28;20018;-74
2022/03/11 02:50:36;;;;;;;5.93;4.05;;;;;;;;;;5043341;28;20162;-74
2022/03/11 02:53:02;;;;;;;7.15;4.00;;;;;;;;;;5032108;28;20032;-74
2022/03/11 02:55:28;;;;;;;5.22;3.90;;;;;;;;;;5040616;28;20029;-75
2022/03/11 02:57:55;;;;;;;7.00;4.30;;;;;;;;;;5037364;28;20513;-76
2022/03/11 03:00:21;;;;;;;5.80;3.90;;;;;;;;;;5038943;28;20032;-74
2022/03/11 03:02:47;;;;;;;6.43;3.90;;;;;;;;;;5040468;28;20022;-74
2022/03/11 03:05:17;;;;;;;7.85;4.45;;;;;;;;;;5040823;28;20051;-75
2022/03/11 03:07:43;;;;;;;6.65;4.22;;;;;;;;;;5044424;28;20107;-74
2022/03/11 03:10:13;;;;;;;5.72;3.70;;;;;;;;;;5045123;28;20023;-74
2022/03/11 03:12:40;;;;;;;6.72;3.95;;;;;;;;;;5040682;28;20045;-74
2022/03/11 03:15:07;;;;;;;6.00;3.97;;;;;;;;;;5041115;28;20546;-76
2022/03/11 03:17:33;;;;;;;6.97;4.35;;;;;;;;;;5043961;28;20025;-75
2022/03/11 03:19:59;;;;;;;6.95;4.05;;;;;;;;;;5040483;28;20047;-75
2022/03/11 03:22:25;;;;;;;7.15;3.95;;;;;;;;;;5046843;28;20025;-74
2022/03/11 03:24:51;;;;;;;5.32;3.90;;;;;;;;;;5046542;28;20385;-75
2022/03/11 03:27:18;;;;;;;5.20;3.72;;;;;;;;;;5036761;28;20176;-75
2022/03/11 03:29:44;;;;;;;5.13;3.80;;;;;;;;;;5042157;28;20032;-74
2022/03/11 03:32:10;;;;;;;5.07;3.67;;;;;;;;;;5042522;28;20072;-75
2022/03/11 03:34:37;;;;;;;6.22;4.20;;;;;;;;;;5040245;28;20371;-75
2022/03/11 03:37:13;;;;;;;10.93;4.60;;;;;;;;;;5042879;28;20032;-76
2022/03/11 03:39:40;;;;;;;5.30;3.63;;;;;;;;;;5043660;28;20108;-75
2022/03/11 03:42:06;;;;;;;5.10;3.80;;;;;;;;;;5043505;28;20028;-75
2022/03/11 03:44:32;;;;;;;6.03;4.05;;;;;;;;;;5043690;28;20075;-77
2022/03/11 03:46:59;;;;;;;5.97;4.07;;;;;;;;;;5039924;28;20044;-73
2022/03/11 03:49:25;;;;;;;6.95;4.28;;;;;;;;;;5040873;28;20067;-74
2022/03/11 03:51:51;;;;;;;5.45;3.97;;;;;;;;;;5035879;28;20024;-73
2022/03/11 03:54:18;;;;;;;5.00;3.95;;;;;;;;;;5047881;28;20027;-75
2022/03/11 03:56:44;;;;;;;7.20;4.03;;;;;;;;;;5042089;28;20025;-75
2022/03/11 03:59:11;;;;;;;8.38;4.22;;;;;;;;;;5041151;28;20363;-74
2022/03/11 04:01:38;;;;;;;6.60;4.00;;;;;;;;;;5042804;28;20047;-74
2022/03/11 04:04:05;;;;;;;7.72;4.78;;;;;;;;;;5043211;28;20389;-74
2022/03/11 04:06:32;;;;;;;5.80;3.85;;;;;;;;;;5034096;28;20461;-76
2022/03/11 04:08:59;;;;;;;6.55;3.88;;;;;;;;;;5033306;28;20398;-75
2022/03/11 04:11:25;;;;;;;8.05;4.18;;;;;;;;;;5043689;28;20571;-76
2022/03/11 04:13:52;;;;;;;6.05;3.88;;;;;;;;;;5044331;28;20456;-77
2022/03/11 04:16:18;;;;;;;6.72;4.40;;;;;;;;;;5044000;28;20420;-75
2022/03/11 04:18:45;;;;;;;6.70;4.60;;;;;;;;;;5042958;28;20118;-74
2022/03/11 04:21:11;;;;;;;6.65;3.75;;;;;;;;;;5044658;28;20501;-74
2022/03/11 04:23:37;;;;;;;5.78;4.05;;;;;;;;;;5046207;28;20220;-76
2022/03/11 04:26:04;;;;;;;7.60;4.38;;;;;;;;;;5047219;28;20087;-75
2022/03/11 04:28:30;;;;;;;4.57;3.35;;;;;;;;;;5045364;28;20218;-76
2022/03/11 04:30:56;;;;;;;6.22;4.38;;;;;;;;;;5045305;28;20398;-75
2022/03/11 04:33:22;;;;;;;6.13;3.95;;;;;;;;;;5044637;28;20697;-76
2022/03/11 04:35:48;;;;;;;6.75;3.85;;;;;;;;;;5043950;28;20033;-76
2022/03/11 04:38:15;;;;;;;5.85;3.55;;;;;;;;;;5036454;28;20089;-75
2022/03/11 04:40:41;;;;;;;6.18;3.97;;;;;;;;;;5043049;28;20069;-75
2022/03/11 04:43:07;;;;;;;6.93;3.90;;;;;;;;;;5043521;28;20036;-74
2022/03/11 04:45:33;;;;;;;8.48;3.78;;;;;;;;;;5044146;28;20025;-75
2022/03/11 04:47:59;;;;;;;9.02;4.10;;;;;;;;;;5045062;28;20045;-74
2022/03/11 04:50:25;;;;;;;6.50;4.13;;;;;;;;;;5045316;28;20036;-75
2022/03/11 04:52:52;;;;;;;7.50;4.75;;;;;;;;;;5044110;28;20027;-76
2022/03/11 04:55:18;;;;;;;7.28;4.45;;;;;;;;;;5045863;28;20021;-75
2022/03/11 04:57:44;;;;;;;7.70;3.97;;;;;;;;;;5045865;28;20098;-75
2022/03/11 05:00:11;;;;;;;6.68;4.03;;;;;;;;;;5041418;28;20025;-74
2022/03/11 05:02:40;;;;;;;6.53;3.90;;;;;;;;;;5042154;28;20028;-76
2022/03/11 05:05:07;;;;;;;6.20;4.45;;;;;;;;;;5041484;28;20079;-76
2022/03/11 05:07:33;;;;;;;10.15;4.40;;;;;;;;;;5043254;28;20123;-75
2022/03/11 05:09:59;;;;;;;6.70;4.00;;;;;;;;;;5043501;28;20491;-74
2022/03/11 05:12:25;;;;;;;5.32;3.75;;;;;;;;;;5043283;28;20049;-75
2022/03/11 05:14:52;;;;;;;8.65;4.80;;;;;;;;;;5040199;28;20052;-75
2022/03/11 05:17:18;;;;;;;6.95;4.47;;;;;;;;;;5042573;28;20083;-75
2022/03/11 05:19:45;;;;;;;9.00;4.90;;;;;;;;;;5043304;28;20025;-75
2022/03/11 05:22:11;;;;;;;5.55;4.22;;;;;;;;;;5042904;28;20049;-75
2022/03/11 05:24:38;;;;;;;8.38;4.82;;;;;;;;;;5040747;28;20102;-74
2022/03/11 05:27:04;;;;;;;6.75;4.25;;;;;;;;;;5043258;28;20044;-75
2022/03/11 05:29:37;;;;;;;7.68;4.68;;;;;;;;;;5042813;28;20025;-74
2022/03/11 05:32:03;;;;;;;8.68;4.40;;;;;;;;;;5041547;28;20095;-75
2022/03/11 05:34:29;;;;;;;8.05;4.55;;;;;;;;;;5043278;28;20021;-76
2022/03/11 05:36:56;;;;;;;8.57;4.97;;;;;;;;;;5042182;28;20389;-75
2022/03/11 05:39:22;;;;;;;6.97;4.43;;;;;;;;;;5042222;28;20489;-75
2022/03/11 05:41:48;;;;;;;10.80;4.93;;;;;;;;;;5041037;28;20033;-74
2022/03/11 05:44:18;;;;;;;8.57;5.78;;;;;;;;;;5042851;28;20516;-75
2022/03/11 05:46:47;;;;;;;9.25;4.95;;;;;;;;;;5042296;28;20495;-75
2022/03/11 05:49:14;;;;;;;7.38;4.10;;;;;;;;;;5040798;28;20021;-75
2022/03/11 05:51:40;;;;;;;7.50;4.38;;;;;;;;;;5042387;28;20036;-75
2022/03/11 05:54:06;;;;;;;7.72;4.32;;;;;;;;;;5043054;28;20032;-75
2022/03/11 05:56:34;;;;;;;7.63;3.80;;;;;;;;;;5042122;28;20036;-75
2022/03/11 05:59:00;;;;;;;6.10;4.57;;;;;;;;;;5042336;28;20113;-75
2022/03/11 06:01:26;;;;;;;5.80;4.22;;;;;;;;;;5042250;28;20033;-75
2022/03/11 06:03:53;;;;;;;7.68;5.35;;;;;;;;;;5040881;28;20036;-75
2022/03/11 06:06:19;;;;;;;7.65;4.97;;;;;;;;;;5041924;28;20061;-75
2022/03/11 06:08:45;;;;;;;7.95;5.55;;;;;;;;;;5040633;28;20063;-75
2022/03/11 06:11:11;;;;;;;8.07;5.57;;;;;;;;;;5041453;28;20056;-75
2022/03/11 06:13:38;;;;;;;8.13;5.25;;;;;;;;;;5041954;28;20408;-75
2022/03/11 06:16:04;;;;;;;12.98;6.57;;;;;;;;;;5040859;28;20633;-75
2022/03/11 06:18:30;;;;;;;9.07;6.13;;;;;;;;;;5042006;28;20029;-75
2022/03/11 06:20:57;;;;;;;14.63;7.32;;;;;;;;;;5042222;28;20036;-74
2022/03/11 06:23:23;;;;;;;9.63;6.93;;;;;;;;;;5041367;28;20087;-75
2022/03/11 06:25:50;;;;;;;10.23;7.15;;;;;;;;;;5042018;28;20162;-75
2022/03/11 06:28:16;;;;;;;11.50;7.90;;;;;;;;;;5040812;28;20167;-75
2022/03/11 06:30:45;;;;;;;13.73;6.88;;;;;;;;;;5040913;28;20025;-75
2022/03/11 06:33:11;;;;;;;14.25;7.72;;;;;;;;;;5041664;28;20040;-75
2022/03/11 06:35:37;;;;;;;7.97;6.65;;;;;;;;;;5041337;28;20021;-75
2022/03/11 06:38:03;;;;;;;10.65;7.07;;;;;;;;;;5041551;28;20029;-73
2022/03/11 06:40:30;;;;;;;12.38;7.72;;;;;;;;;;5039641;28;20039;-74
2022/03/11 06:42:56;;;;;;;15.27;8.68;;;;;;;;;;5041651;28;20051;-74
2022/03/11 06:45:23;;;;;;;21.02;13.15;;;;;;;;;;5041151;28;20025;-75
2022/03/11 06:47:49;;;;;;;23.05;12.90;;;;;;;;;;5041417;28;20033;-74
2022/03/11 06:50:16;;;;;;;19.67;12.65;;;;;;;;;;5040758;28;20121;-74
2022/03/11 06:52:42;;;;;;;19.92;12.40;;;;;;;;;;5040963;28;20033;-74
2022/03/11 06:55:09;;;;;;;20.52;12.63;;;;;;;;;;5039797;28;20120;-74
2022/03/11 06:57:35;;;;;;;18.73;12.48;;;;;;;;;;5041245;28;20029;-74
2022/03/11 07:00:01;;;;;;;22.15;13.80;;;;;;;;;;5041247;28;20103;-75
2022/03/11 07:02:28;;;;;;;22.63;12.77;;;;;;;;;;5041281;28;20096;-74
2022/03/11 07:04:54;;;;;;;19.38;12.82;;;;;;;;;;5041329;28;20108;-74
2022/03/11 07:07:20;;;;;;;19.95;12.25;;;;;;;;;;5041232;28;20112;-74
2022/03/11 07:09:47;;;;;;;18.27;12.80;;;;;;;;;;5039611;28;20040;-74
2022/03/11 07:12:13;;;;;;;15.73;10.90;;;;;;;;;;5041207;28;20549;-74
2022/03/11 07:14:39;;;;;;;15.55;11.18;;;;;;;;;;5041522;28;20028;-74
2022/03/11 07:17:06;;;;;;;16.13;10.85;;;;;;;;;;5043873;28;20558;-74
2022/03/11 07:19:32;;;;;;;10.75;9.38;;;;;;;;;;5043365;28;20092;-74
2022/03/11 07:22:02;;;;;;;15.23;9.25;;;;;;;;;;5045200;28;20420;-75
2022/03/11 07:24:28;;;;;;;15.52;10.43;;;;;;;;;;5045081;28;20029;-74
2022/03/11 07:26:54;;;;;;;11.40;7.60;;;;;;;;;;5045055;28;20714;-75
2022/03/11 07:29:20;;;;;;;8.18;4.13;;;;;;;;;;5043746;28;20032;-75
2022/03/11 07:31:46;;;;;;;6.85;4.13;;;;;;;;;;5044473;28;20090;-74
2022/03/11 07:34:13;;;;;;;5.55;4.25;;;;;;;;;;5043736;28;20035;-74
2022/03/11 07:36:39;;;;;;;5.20;3.75;;;;;;;;;;5047038;28;20154;-74
2022/03/11 07:39:06;;;;;;;9.73;4.25;;;;;;;;;;5048009;28;20044;-73
2022/03/11 07:41:32;;;;;;;5.95;3.78;;;;;;;;;;5047685;28;20029;-74
2022/03/11 07:43:58;;;;;;;6.90;4.28;;;;;;;;;;5046568;28;20029;-73
2022/03/11 07:46:27;;;;;;;9.90;5.60;;;;;;;;;;5043358;28;20029;-75
2022/03/11 07:48:53;;;;;;;9.05;4.40;;;;;;;;;;5035490;28;20103;-75
2022/03/11 07:51:19;;;;;;;5.88;3.97;;;;;;;;;;5043409;28;20435;-74
2022/03/11 07:53:46;;;;;;;7.43;5.18;;;;;;;;;;5045304;28;20025;-74
2022/03/11 07:56:14;;;;;;;6.35;4.07;;;;;;;;;;5043957;28;20025;-74
2022/03/11 07:58:41;;;;;;;8.10;4.63;;;;;;;;;;5042203;28;20028;-74
2022/03/11 08:01:08;;;;;;;6.20;4.13;;;;;;;;;;5042227;28;20043;-74
2022/03/11 08:03:38;;;;;;;7.03;4.63;;;;;;;;;;5040956;28;20481;-74
2022/03/11 08:06:05;;;;;;;9.23;5.90;;;;;;;;;;5042041;28;20040;-75
2022/03/11 08:08:31;;;;;;;8.98;5.72;;;;;;;;;;5042568;28;20364;-74
2022/03/11 08:10:57;;;;;;;8.10;4.88;;;;;;;;;;5042020;28;20045;-75
2022/03/11 08:13:24;;;;;;;8.18;4.90;;;;;;;;;;5042322;28;20036;-74
2022/03/11 08:15:50;;;;;;;8.98;4.93;;;;;;;;;;5041881;28;20032;-74
2022/03/11 08:18:16;;;;;;;8.82;5.32;;;;;;;;;;5038396;28;20025;-74
2022/03/11 08:20:42;;;;;;;11.13;6.72;;;;;;;;;;5040796;28;20803;-74
2022/03/11 08:23:09;;;;;;;7.85;5.40;;;;;;;;;;5032550;28;20055;-74
2022/03/11 08:25:36;;;;;;;6.22;3.95;;;;;;;;;;5035140;28;20033;-75
2022/03/11 08:28:04;;;;;;;6.05;4.22;;;;;;;;;;5026334;28;20113;-74
2022/03/11 08:30:31;;;;;;;6.65;4.47;;;;;;;;;;5020414;28;20025;-75
2022/03/11 08:32:57;;;;;;;6.20;3.90;;;;;;;;;;5021994;28;20744;-74
2022/03/11 08:35:24;;;;;;;5.95;3.97;;;;;;;;;;5021785;28;20029;-75
2022/03/11 08:37:50;;;;;;;5.47;3.30;;;;;;;;;;5035558;28;20029;-75
2022/03/11 08:40:16;;;;;;;5.68;3.97;;;;;;;;;;5051674;28;20078;-74
2022/03/11 08:42:43;;;;;;;7.70;3.67;;;;;;;;;;5037288;28;20543;-74
2022/03/11 08:45:10;;;;;;;5.95;4.00;;;;;;;;;;5021558;28;20030;-75
2022/03/11 08:47:37;;;;;;;6.95;4.00;;;;;;;;;;5029939;28;20045;-74
2022/03/11 08:50:03;;;;;;;6.68;4.28;;;;;;;;;;5039408;28;20071;-75
2022/03/11 08:52:30;;;;;;;8.30;4.18;;;;;;;;;;5041116;28;20029;-74
2022/03/11 08:54:57;;;;;;;5.15;4.07;;;;;;;;;;5041501;28;20021;-74
2022/03/11 08:57:23;;;;;;;7.70;3.95;;;;;;;;;;5041878;28;20048;-75
2022/03/11 08:59:49;;;;;;;5.53;3.42;;;;;;;;;;5029058;28;20021;-75
2022/03/11 09:02:16;;;;;;;6.43;4.07;;;;;;;;;;5021134;28;20172;-74
2022/03/11 09:04:43;;;;;;;6.45;4.10;;;;;;;;;;5021002;28;20030;-75
2022/03/11 09:07:09;;;;;;;6.78;3.60;;;;;;;;;;5021436;28;20099;-74
2022/03/11 09:09:36;;;;;;;7.63;4.63;;;;;;;;;;5021538;28;20039;-75
2022/03/11 09:12:03;;;;;;;9.10;5.72;;;;;;;;;;5020228;28;20069;-75
2022/03/11 09:14:30;;;;;;;10.23;4.97;;;;;;;;;;5019557;28;20022;-74
2022/03/11 09:16:57;;;;;;;6.55;5.03;;;;;;;;;;5021066;28;20029;-75
2022/03/11 09:19:23;;;;;;;7.80;4.35;;;;;;;;;;5024690;28;20074;-75
2022/03/11 09:21:49;;;;;;;90.75;11.77;;;;;;;;;;5041639;28;20106;-81
2022/03/11 09:24:16;;;;;;;11.77;4.90;;;;;;;;;;5040916;28;20029;-75
2022/03/11 09:26:45;;;;;;;8.48;4.93;;;;;;;;;;5038896;28;20033;-75
2022/03/11 09:29:11;;;;;;;7.35;4.95;;;;;;;;;;5040759;28;20025;-75
2022/03/11 09:31:37;;;;;;;6.97;5.10;;;;;;;;;;5039676;28;20036;-76
2022/03/11 09:34:03;;;;;;;8.18;5.05;;;;;;;;;;5039537;28;20134;-74
2022/03/11 09:36:29;;;;;;;6.68;5.88;;;;;;;;;;5035980;28;20044;-76
2022/03/11 09:38:55;;;;;;;10.20;6.43;;;;;;;;;;5035613;28;20105;-74
2022/03/11 09:41:22;;;;;;;6.68;5.20;;;;;;;;;;5042856;28;20082;-75
2022/03/11 09:43:48;;;;;;;9.30;5.90;;;;;;;;;;5042379;28;20424;-75
2022/03/11 09:46:15;;;;;;;9.90;5.38;;;;;;;;;;5042390;28;20068;-75
2022/03/11 09:48:42;;;;;;;8.10;5.43;;;;;;;;;;5042481;28;20031;-74
2022/03/11 09:51:10;;;;;;;7.07;5.20;;;;;;;;;;5040533;28;20428;-75
2022/03/11 09:53:36;;;;;;;7.57;5.80;;;;;;;;;;5042182;28;20364;-75
2022/03/11 09:56:03;;;;;;;11.60;6.38;;;;;;;;;;5042305;28;20032;-74
2022/03/11 09:58:29;;;;;;;10.80;7.00;;;;;;;;;;5041703;28;20036;-75
2022/03/11 10:00:55;;;;;;;9.43;7.18;;;;;;;;;;5040602;28;20044;-75
2022/03/11 10:03:22;;;;;;;8.95;6.80;;;;;;;;;;5041107;28;20112;-75
2022/03/11 10:05:48;;;;;;;7.50;5.95;;;;;;;;;;5040596;28;20108;-75
2022/03/11 10:08:14;;;;;;;8.23;5.65;;;;;;;;;;5041230;28;20424;-76
2022/03/11 10:10:41;;;;;;;7.10;5.03;;;;;;;;;;5041570;28;20057;-76
2022/03/11 10:13:09;;;;;;;8.45;4.93;;;;;;;;;;5040089;28;20104;-75
2022/03/11 10:15:35;;;;;;;6.60;5.18;;;;;;;;;;5040794;28;20389;-76
2022/03/11 10:18:04;;;;;;;8.13;5.22;;;;;;;;;;5041558;28;20021;-75
2022/03/11 10:20:31;;;;;;;6.63;4.70;;;;;;;;;;5041703;28;20115;-75
2022/03/11 10:22:57;;;;;;;5.30;4.72;;;;;;;;;;5040071;28;20052;-75
2022/03/11 10:25:25;;;;;;;8.82;5.35;;;;;;;;;;5041870;28;20032;-75
2022/03/11 10:28:01;;;;;;;8.38;4.57;;;;;;;;;;5041887;28;20041;-74
2022/03/11 10:30:28;;;;;;;4.88;4.00;;;;;;;;;;5040536;28;20025;-75
2022/03/11 10:32:55;;;;;;;4.60;3.70;;;;;;;;;;5041874;28;20029;-76
2022/03/11 10:35:29;;;;;;;8.02;4.85;;;;;;;;;;5041863;28;20493;-75
2022/03/11 10:38:00;;;;;;;5.72;4.80;;;;;;;;;;5041830;28;20017;-74
2022/03/11 10:40:27;;;;;;;4.50;3.72;;;;;;;;;;5041484;28;20079;-75
2022/03/11 10:43:29;;;;;;;5.28;3.53;;;;;;;;;;5042003;28;20032;-76
2022/03/11 10:45:55;;;;;;;5.40;4.32;;;;;;;;;;5018711;28;20037;-75
2022/03/11 10:48:40;;;;;;;6.38;4.13;;;;;;;;;;5037062;28;20047;-75
2022/03/11 10:51:10;;;;;;;6.35;3.53;;;;;;;;;;5042848;28;20040;-75
2022/03/11 10:53:40;;;;;;;8.77;3.75;;;;;;;;;;5045754;28;20393;-75
2022/03/11 10:56:07;;;;;;;5.45;3.35;;;;;;;;;;5044316;28;20669;-75
2022/03/11 10:58:36;;;;;;;7.32;3.88;;;;;;;;;;5045539;28;20033;-75
2022/03/11 11:01:02;;;;;;;4.78;3.58;;;;;;;;;;5045753;28;20025;-75
2022/03/11 11:03:28;;;;;;;5.90;3.78;;;;;;;;;;5045625;28;20025;-75
2022/03/11 11:05:55;;;;;;;4.85;3.70;;;;;;;;;;5043710;28;20159;-75
2022/03/11 11:08:22;;;;;;;4.95;3.53;;;;;;;;;;5045530;28;20032;-74
2022/03/11 11:10:48;;;;;;;6.50;3.60;;;;;;;;;;5044967;28;20051;-75
2022/03/11 11:13:15;;;;;;;6.32;3.72;;;;;;;;;;5045619;28;20033;-75
2022/03/11 11:15:41;;;;;;;4.85;3.50;;;;;;;;;;5045676;28;20021;-76
2022/03/11 11:18:14;;;;;;;6.15;3.38;;;;;;;;;;5044054;28;20108;-76
2022/03/11 11:20:40;;;;;;;4.13;3.38;;;;;;;;;;5033456;28;20021;-75
2022/03/11 11:23:07;;;;;;;5.03;3.70;;;;;;;;;;5028751;28;20499;-76
2022/03/11 11:25:34;;;;;;;6.35;3.70;;;;;;;;;;5042491;28;20086;-76
2022/03/11 11:28:06;;;;;;;7.00;3.97;;;;;;;;;;5043040;28;20061;-75
2022/03/11 11:30:33;;;;;;;5.25;3.83;;;;;;;;;;5045297;28;20389;-74
2022/03/11 11:33:01;;;;;;;5.50;3.97;;;;;;;;;;5044906;28;20035;-75
2022/03/11 11:35:32;;;;;;;7.90;4.22;;;;;;;;;;5044305;28;20516;-75
2022/03/11 11:38:02;;;;;;;6.78;4.43;;;;;;;;;;5045075;28;20514;-75
2022/03/11 11:40:35;;;;;;;5.82;4.40;;;;;;;;;;5043926;28;20138;-75
2022/03/11 11:43:13;;;;;;;7.15;4.38;;;;;;;;;;5048141;28;20060;-74
2022/03/11 11:45:43;;;;;;;6.88;3.97;;;;;;;;;;5047457;28;20025;-73
2022/03/11 11:48:28;;;;;;;6.85;4.18;;;;;;;;;;5046346;28;20039;-74
2022/03/11 11:50:54;;;;;;;8.40;4.88;;;;;;;;;;5045543;28;20043;-74
2022/03/11 11:53:36;;;;;;;5.07;3.97;;;;;;;;;;5044313;28;20037;-75
2022/03/11 11:56:22;;;;;;;8.10;4.93;;;;;;;;;;5037836;28;20049;-74
2022/03/11 11:58:51;;;;;;;6.22;4.53;;;;;;;;;;5025663;28;20048;-74
2022/03/11 12:01:36;;;;;;;6.38;4.95;;;;;;;;;;5043011;28;20041;-74
2022/03/11 12:04:21;;;;;;;7.25;4.75;;;;;;;;;;5043638;28;20029;-74
2022/03/11 12:07:02;;;;;;;6.75;4.60;;;;;;;;;;5043839;28;20052;-74
2022/03/11 12:12:06;;;;;;;7.40;5.05;;;;;;;;;;5038840;28;20113;-74
2022/03/11 12:14:33;;;;;;;6.90;4.82;;;;;;;;;;5025253;28;20029;-74
2022/03/11 12:17:06;;;;;;;8.65;5.68;;;;;;;;;;5025554;28;20025;-74
2022/03/11 12:19:37;;;;;;;6.93;5.45;;;;;;;;;;5036422;28;20518;-74
2022/03/11 12:22:21;;;;;;;10.65;5.00;;;;;;;;;;5044469;28;20083;-74
2022/03/11 12:24:58;;;;;;;8.27;5.22;;;;;;;;;;5045024;28;20103;-74
2022/03/11 12:27:42;;;;;;;9.35;5.03;;;;;;;;;;5044850;28;20037;-74
2022/03/11 12:30:10;;;;;;;6.95;4.15;;;;;;;;;;5044878;28;20032;-74
2022/03/11 12:32:38;;;;;;;5.78;4.20;;;;;;;;;;5043366;28;20120;-74
2022/03/11 12:35:05;;;;;;;9.27;4.88;;;;;;;;;;5044847;28;20060;-74
2022/03/11 12:37:32;;;;;;;4.65;3.85;;;;;;;;;;5044996;28;20032;-74
2022/03/11 12:40:01;;;;;;;7.60;3.60;;;;;;;;;;5044786;28;20024;-74
2022/03/11 12:42:37;;;;;;;7.65;3.90;;;;;;;;;;5044849;28;20145;-75
2022/03/11 12:45:04;;;;;;;6.07;3.90;;;;;;;;;;5043797;28;20120;-74
2022/03/11 12:47:36;;;;;;;5.90;3.55;;;;;;;;;;5044665;28;20543;-74
2022/03/11 12:50:04;;;;;;;4.20;3.50;;;;;;;;;;5044276;28;20033;-74
2022/03/11 12:52:40;;;;;;;5.07;3.75;;;;;;;;;;5044102;28;20033;-74
2022/03/11 12:55:21;;;;;;;5.60;3.13;;;;;;;;;;5044380;28;20029;-74
2022/03/11 12:57:51;;;;;;;5.88;4.43;;;;;;;;;;5042980;28;20033;-74
2022/03/11 13:00:19;;;;;;;6.50;4.20;;;;;;;;;;5044184;28;20071;-74
2022/03/11 13:02:45;;;;;;;4.80;3.55;;;;;;;;;;5044237;28;20029;-74
2022/03/11 13:05:19;;;;;;;4.90;3.75;;;;;;;;;;5042341;28;20028;-74
2022/03/11 13:07:45;;;;;;;8.52;3.75;;;;;;;;;;5044473;28;20037;-74
2022/03/11 13:10:16;;;;;;;5.82;3.72;;;;;;;;;;5044542;28;20112;-74
2022/03/11 13:12:42;;;;;;;4.00;3.22;;;;;;;;;;5043064;28;20048;-74
2022/03/11 13:15:11;;;;;;;5.60;3.38;;;;;;;;;;5043234;28;20021;-74
2022/03/11 13:17:47;;;;;;;6.70;3.47;;;;;;;;;;5043542;28;20048;-75
2022/03/11 13:20:29;;;;;;;4.43;3.40;;;;;;;;;;5044027;28;20039;-74
2022/03/11 13:22:56;;;;;;;5.20;3.53;;;;;;;;;;5042789;28;20029;-75
2022/03/11 13:25:23;;;;;;;6.03;3.65;;;;;;;;;;5044023;28;20033;-74
2022/03/11 13:27:50;;;;;;;7.28;3.42;;;;;;;;;;5043909;28;20033;-75
2022/03/11 13:30:16;;;;;;;5.03;3.47;;;;;;;;;;5043495;28;20500;-74
2022/03/11 13:32:42;;;;;;;5.40;3.45;;;;;;;;;;5042518;28;20481;-74
2022/03/11 13:35:10;;;;;;;6.00;3.78;;;;;;;;;;5044267;28;20021;-74
2022/03/11 13:37:42;;;;;;;6.72;4.22;;;;;;;;;;5043615;28;20463;-74
2022/03/11 13:40:09;;;;;;;5.20;3.60;;;;;;;;;;5043701;28;20029;-74
2022/03/11 13:42:36;;;;;;;3.92;3.30;;;;;;;;;;5042080;28;20040;-75
2022/03/11 13:45:06;;;;;;;7.30;3.58;;;;;;;;;;5043079;28;20029;-74
2022/03/11 13:47:32;;;;;;;5.05;2.88;;;;;;;;;;5043214;28;20048;-74
2022/03/11 13:50:08;;;;;;;4.65;3.08;;;;;;;;;;5043686;28;20032;-74
2022/03/11 13:52:42;;;;;;;5.32;3.60;;;;;;;;;;5040232;28;20028;-75
2022/03/11 13:55:10;;;;;;;5.65;3.70;;;;;;;;;;5028909;28;20104;-74
2022/03/11 13:57:37;;;;;;;7.00;3.35;;;;;;;;;;5030927;28;20029;-74
2022/03/11 14:00:24;;;;;;;4.85;3.20;;;;;;;;;;5045720;28;20027;-74
2022/03/11 14:02:52;;;;;;;6.82;3.85;;;;;;;;;;5044106;28;20025;-74
2022/03/11 14:05:26;;;;;;;5.80;3.00;;;;;;;;;;5043900;28;20017;-73
2022/03/11 14:07:57;;;;;;;4.72;3.17;;;;;;;;;;5044313;28;20033;-74
2022/03/11 14:10:27;;;;;;;7.38;3.20;;;;;;;;;;5044947;28;20017;-74
2022/03/11 14:13:00;;;;;;;5.10;3.50;;;;;;;;;;5045422;28;20033;-74
2022/03/11 14:15:31;;;;;;;3.97;3.28;;;;;;;;;;5043145;28;20108;-74
2022/03/11 14:17:57;;;;;;;5.40;3.80;;;;;;;;;;5045030;28;20469;-74
2022/03/11 14:20:23;;;;;;;4.55;3.42;;;;;;;;;;5045212;28;20029;-74
2022/03/11 14:22:49;;;;;;;6.05;3.40;;;;;;;;;;5044752;28;20028;-74
2022/03/11 14:25:15;;;;;;;5.85;3.70;;;;;;;;;;5044476;28;20033;-74
2022/03/11 14:27:41;;;;;;;6.05;3.70;;;;;;;;;;5043847;28;20040;-74
2022/03/11 14:30:08;;;;;;;17.92;5.38;;;;;;;;;;5044402;28;20055;-74
2022/03/11 14:32:35;;;;;;;10.30;4.10;;;;;;;;;;5041667;28;21026;-74
2022/03/11 14:35:02;;;;;;;7.55;3.70;;;;;;;;;;5041465;28;20363;-73
2022/03/11 14:37:28;;;;;;;7.25;3.75;;;;;;;;;;5040085;28;20029;-73
2022/03/11 14:39:54;;;;;;;4.53;3.17;;;;;;;;;;5041829;28;20029;-73
2022/03/11 14:42:20;;;;;;;5.53;4.05;;;;;;;;;;5041393;28;20045;-74
2022/03/11 14:44:46;;;;;;;8.30;4.05;;;;;;;;;;5041043;28;20025;-75
2022/03/11 14:47:14;;;;;;;13.88;3.80;;;;;;;;;;5039648;28;20033;-73